sensor_id;sensor_type;location;lat;lon;timestamp;P1;durP1;ratioP1;P2;durP2;ratioP2
62014;SDS011;47970;52.396;9.586;2022-09-13T00:00:54;3.85;;;2.33;;
62014;SDS011;47970;52.396;9.586;2022-09-13T00:03:20;4.32;;;2.40;;
62014;SDS011;47970;52.396;9.586;2022-09-13T00:05:45;4.63;;;2.33;;
62014;SDS011;47970;52.396;9.586;2022-09-13T00:08:11;4.82;;;2.60;;
62014;SDS011;47970;52.396;9.586;2022-09-13T00:10:37;6.85;;;2.78;;
62014;SDS011;47970;52.396;9.586;2022-09-13T00:13:03;8.52;;;2.88;;
62014;SDS011;47970;52.396;9.586;2022-09-13T00:15:28;6.18;;;2.70;;
62014;SDS011;47970;52.396;9.586;2022-09-13T00:17:54;4.72;;;2.47;;
62014;SDS011;47970;52.396;9.586;2022-09-13T00:20:19;5.50;;;3.13;;
62014;SDS011;47970;52.396;9.586;2022-09-13T00:22:45;5.67;;;2.67;;
62014;SDS011;47970;52.396;9.586;2022-09-13T00:25:10;5.93;;;2.43;;
62014;SDS011;47970;52.396;9.586;2022-09-13T00:27:35;5.43;;;2.50;;
62014;SDS011;47970;52.396;9.586;2022-09-13T00:30:02;6.85;;;2.70;;
62014;SDS011;47970;52.396;9.586;2022-09-13T00:32:27;6.35;;;3.33;;
62014;SDS011;47970;52.396;9.586;2022-09-13T00:34:52;17.17;;;2.83;;
62014;SDS011;47970;52.396;9.586;2022-09-13T00:37:18;6.17;;;2.70;;
62014;SDS011;47970;52.396;9.586;2022-09-13T00:39:43;5.00;;;2.60;;
62014;SDS011;47970;52.396;9.586;2022-09-13T00:42:10;4.70;;;2.43;;
62014;SDS011;47970;52.396;9.586;2022-09-13T00:44:49;4.65;;;2.40;;
62014;SDS011;47970;52.396;9.586;2022-09-13T00:47:18;6.10;;;2.40;;
62014;SDS011;47970;52.396;9.586;2022-09-13T00:49:44;6.40;;;2.95;;
62014;SDS011;47970;52.396;9.586;2022-09-13T00:52:13;5.78;;;2.80;;
62014;SDS011;47970;52.396;9.586;2022-09-13T00:54:41;5.03;;;2.22;;
62014;SDS011;47970;52.396;9.586;2022-09-13T00:57:07;6.13;;;2.40;;
62014;SDS011;47970;52.396;9.586;2022-09-13T00:59:36;5.03;;;2.33;;
62014;SDS011;47970;52.396;9.586;2022-09-13T01:02:02;5.25;;;2.45;;
62014;SDS011;47970;52.396;9.586;2022-09-13T01:04:28;4.55;;;2.30;;
62014;SDS011;47970;52.396;9.586;2022-09-13T01:06:56;5.88;;;2.70;;
62014;SDS011;47970;52.396;9.586;2022-09-13T01:09:22;4.20;;;2.50;;
62014;SDS011;47970;52.396;9.586;2022-09-13T01:11:52;6.30;;;2.58;;
62014;SDS011;47970;52.396;9.586;2022-09-13T01:14:24;5.13;;;2.60;;
62014;SDS011;47970;52.396;9.586;2022-09-13T01:16:50;4.70;;;2.50;;
62014;SDS011;47970;52.396;9.586;2022-09-13T01:19:16;4.88;;;2.55;;
62014;SDS011;47970;52.396;9.586;2022-09-13T01:31:51;5.97;;;2.50;;
62014;SDS011;47970;52.396;9.586;2022-09-13T01:44:38;6.00;;;2.55;;
62014;SDS011;47970;52.396;9.586;2022-09-13T01:54:46;5.57;;;2.60;;
62014;SDS011;47970;52.396;9.586;2022-09-13T01:57:15;3.85;;;2.50;;
62014;SDS011;47970;52.396;9.586;2022-09-13T02:02:18;5.68;;;2.38;;
62014;SDS011;47970;52.396;9.586;2022-09-13T02:04:46;5.15;;;2.67;;
62014;SDS011;47970;52.396;9.586;2022-09-13T02:07:22;5.03;;;2.38;;
62014;SDS011;47970;52.396;9.586;2022-09-13T02:09:52;6.00;;;2.72;;
62014;SDS011;47970;52.396;9.586;2022-09-13T02:12:22;5.15;;;2.70;;
62014;SDS011;47970;52.396;9.586;2022-09-13T02:14:50;4.65;;;2.55;;
62014;SDS011;47970;52.396;9.586;2022-09-13T02:17:18;4.90;;;2.80;;
62014;SDS011;47970;52.396;9.586;2022-09-13T02:22:17;4.47;;;2.50;;
62014;SDS011;47970;52.396;9.586;2022-09-13T02:24:44;4.10;;;2.50;;
62014;SDS011;47970;52.396;9.586;2022-09-13T02:27:12;4.80;;;2.65;;
62014;SDS011;47970;52.396;9.586;2022-09-13T02:29:39;5.25;;;2.83;;
62014;SDS011;47970;52.396;9.586;2022-09-13T02:37:25;4.47;;;2.53;;
62014;SDS011;47970;52.396;9.586;2022-09-13T02:39:56;4.00;;;2.60;;
62014;SDS011;47970;52.396;9.586;2022-09-13T02:42:34;4.47;;;2.65;;
62014;SDS011;47970;52.396;9.586;2022-09-13T02:45:00;5.40;;;2.78;;
62014;SDS011;47970;52.396;9.586;2022-09-13T02:52:45;5.95;;;2.90;;
62014;SDS011;47970;52.396;9.586;2022-09-13T03:00:31;5.03;;;2.63;;
62014;SDS011;47970;52.396;9.586;2022-09-13T03:02:57;5.22;;;2.88;;
62014;SDS011;47970;52.396;9.586;2022-09-13T03:05:24;5.60;;;3.10;;
62014;SDS011;47970;52.396;9.586;2022-09-13T03:07:49;10.57;;;3.42;;
62014;SDS011;47970;52.396;9.586;2022-09-13T03:10:14;6.45;;;2.85;;
62014;SDS011;47970;52.396;9.586;2022-09-13T03:12:53;7.03;;;3.13;;
62014;SDS011;47970;52.396;9.586;2022-09-13T03:17:53;5.28;;;2.90;;
62014;SDS011;47970;52.396;9.586;2022-09-13T03:20:42;6.80;;;3.10;;
62014;SDS011;47970;52.396;9.586;2022-09-13T03:28:34;4.97;;;3.25;;
62014;SDS011;47970;52.396;9.586;2022-09-13T03:31:09;6.95;;;3.25;;
62014;SDS011;47970;52.396;9.586;2022-09-13T03:34:02;4.85;;;2.90;;
62014;SDS011;47970;52.396;9.586;2022-09-13T03:38:55;8.68;;;3.50;;
62014;SDS011;47970;52.396;9.586;2022-09-13T03:41:26;9.77;;;3.55;;
62014;SDS011;47970;52.396;9.586;2022-09-13T03:43:57;6.88;;;3.35;;
62014;SDS011;47970;52.396;9.586;2022-09-13T03:46:25;5.13;;;2.97;;
62014;SDS011;47970;52.396;9.586;2022-09-13T03:48:53;7.38;;;3.10;;
62014;SDS011;47970;52.396;9.586;2022-09-13T03:51:19;6.95;;;3.15;;
62014;SDS011;47970;52.396;9.586;2022-09-13T03:53:46;6.15;;;3.20;;
62014;SDS011;47970;52.396;9.586;2022-09-13T03:56:12;7.88;;;3.58;;
62014;SDS011;47970;52.396;9.586;2022-09-13T03:58:38;5.93;;;3.30;;
62014;SDS011;47970;52.396;9.586;2022-09-13T04:01:03;6.17;;;2.93;;
62014;SDS011;47970;52.396;9.586;2022-09-13T04:03:29;6.40;;;3.60;;
62014;SDS011;47970;52.396;9.586;2022-09-13T04:05:54;6.97;;;3.60;;
62014;SDS011;47970;52.396;9.586;2022-09-13T04:08:19;7.03;;;3.37;;
62014;SDS011;47970;52.396;9.586;2022-09-13T04:10:44;9.50;;;3.77;;
62014;SDS011;47970;52.396;9.586;2022-09-13T04:13:13;7.50;;;3.92;;
62014;SDS011;47970;52.396;9.586;2022-09-13T04:15:40;8.85;;;3.38;;
62014;SDS011;47970;52.396;9.586;2022-09-13T04:18:05;7.18;;;3.50;;
62014;SDS011;47970;52.396;9.586;2022-09-13T04:20:30;9.17;;;3.70;;
62014;SDS011;47970;52.396;9.586;2022-09-13T04:22:55;8.43;;;3.58;;
62014;SDS011;47970;52.396;9.586;2022-09-13T04:25:21;6.88;;;3.78;;
62014;SDS011;47970;52.396;9.586;2022-09-13T04:27:53;7.80;;;3.42;;
62014;SDS011;47970;52.396;9.586;2022-09-13T04:30:19;7.75;;;3.50;;
62014;SDS011;47970;52.396;9.586;2022-09-13T04:32:45;8.05;;;3.30;;
62014;SDS011;47970;52.396;9.586;2022-09-13T04:35:10;6.67;;;3.23;;
62014;SDS011;47970;52.396;9.586;2022-09-13T04:37:36;9.03;;;3.50;;
62014;SDS011;47970;52.396;9.586;2022-09-13T04:40:01;8.70;;;3.40;;
62014;SDS011;47970;52.396;9.586;2022-09-13T04:42:26;6.55;;;3.78;;
62014;SDS011;47970;52.396;9.586;2022-09-13T04:44:51;5.87;;;3.50;;
62014;SDS011;47970;52.396;9.586;2022-09-13T04:47:17;11.13;;;3.87;;
62014;SDS011;47970;52.396;9.586;2022-09-13T04:49:43;5.55;;;3.38;;
62014;SDS011;47970;52.396;9.586;2022-09-13T04:52:08;6.10;;;3.42;;
62014;SDS011;47970;52.396;9.586;2022-09-13T04:54:33;4.87;;;2.97;;
62014;SDS011;47970;52.396;9.586;2022-09-13T04:56:58;5.33;;;3.33;;
62014;SDS011;47970;52.396;9.586;2022-09-13T04:59:24;5.77;;;3.07;;
62014;SDS011;47970;52.396;9.586;2022-09-13T05:01:49;6.47;;;3.07;;
62014;SDS011;47970;52.396;9.586;2022-09-13T05:04:14;7.63;;;3.70;;
62014;SDS011;47970;52.396;9.586;2022-09-13T05:06:39;5.63;;;3.17;;
62014;SDS011;47970;52.396;9.586;2022-09-13T05:09:04;5.63;;;3.60;;
62014;SDS011;47970;52.396;9.586;2022-09-13T05:11:30;5.55;;;3.08;;
62014;SDS011;47970;52.396;9.586;2022-09-13T05:13:56;5.30;;;3.35;;
62014;SDS011;47970;52.396;9.586;2022-09-13T05:16:22;5.35;;;2.95;;
62014;SDS011;47970;52.396;9.586;2022-09-13T05:18:48;5.15;;;3.30;;
62014;SDS011;47970;52.396;9.586;2022-09-13T05:21:13;7.53;;;3.25;;
62014;SDS011;47970;52.396;9.586;2022-09-13T05:23:38;8.18;;;4.45;;
62014;SDS011;47970;52.396;9.586;2022-09-13T05:26:04;7.40;;;4.47;;
62014;SDS011;47970;52.396;9.586;2022-09-13T05:28:30;9.05;;;4.07;;
62014;SDS011;47970;52.396;9.586;2022-09-13T05:30:56;8.05;;;4.03;;
62014;SDS011;47970;52.396;9.586;2022-09-13T05:33:22;9.60;;;3.40;;
62014;SDS011;47970;52.396;9.586;2022-09-13T05:35:48;5.97;;;3.47;;
62014;SDS011;47970;52.396;9.586;2022-09-13T05:38:14;6.20;;;3.45;;
62014;SDS011;47970;52.396;9.586;2022-09-13T05:40:39;7.72;;;3.50;;
62014;SDS011;47970;52.396;9.586;2022-09-13T05:43:04;10.27;;;4.37;;
62014;SDS011;47970;52.396;9.586;2022-09-13T05:45:29;6.60;;;3.60;;
62014;SDS011;47970;52.396;9.586;2022-09-13T05:47:54;7.97;;;3.60;;
62014;SDS011;47970;52.396;9.586;2022-09-13T05:50:20;6.97;;;3.23;;
62014;SDS011;47970;52.396;9.586;2022-09-13T05:52:50;7.00;;;3.77;;
62014;SDS011;47970;52.396;9.586;2022-09-13T05:55:15;4.97;;;3.25;;
62014;SDS011;47970;52.396;9.586;2022-09-13T05:57:40;7.77;;;4.27;;
62014;SDS011;47970;52.396;9.586;2022-09-13T06:00:06;7.77;;;3.80;;
62014;SDS011;47970;52.396;9.586;2022-09-13T06:02:31;7.72;;;4.22;;
62014;SDS011;47970;52.396;9.586;2022-09-13T06:04:56;10.90;;;3.70;;
62014;SDS011;47970;52.396;9.586;2022-09-13T06:07:21;8.50;;;3.47;;
62014;SDS011;47970;52.396;9.586;2022-09-13T06:09:47;7.27;;;4.50;;
62014;SDS011;47970;52.396;9.586;2022-09-13T06:12:12;10.27;;;4.40;;
62014;SDS011;47970;52.396;9.586;2022-09-13T06:14:37;9.17;;;4.30;;
62014;SDS011;47970;52.396;9.586;2022-09-13T06:17:02;12.13;;;4.10;;
62014;SDS011;47970;52.396;9.586;2022-09-13T06:19:28;7.37;;;4.57;;
62014;SDS011;47970;52.396;9.586;2022-09-13T06:21:53;8.17;;;4.17;;
62014;SDS011;47970;52.396;9.586;2022-09-13T06:24:18;14.67;;;4.70;;
62014;SDS011;47970;52.396;9.586;2022-09-13T06:26:43;8.18;;;4.15;;
62014;SDS011;47970;52.396;9.586;2022-09-13T06:29:09;9.60;;;4.07;;
62014;SDS011;47970;52.396;9.586;2022-09-13T06:31:34;9.20;;;5.00;;
62014;SDS011;47970;52.396;9.586;2022-09-13T06:34:02;8.20;;;4.63;;
62014;SDS011;47970;52.396;9.586;2022-09-13T06:36:27;6.17;;;3.93;;
62014;SDS011;47970;52.396;9.586;2022-09-13T06:38:53;7.28;;;4.35;;
62014;SDS011;47970;52.396;9.586;2022-09-13T06:41:21;11.02;;;4.65;;
62014;SDS011;47970;52.396;9.586;2022-09-13T06:43:51;7.82;;;4.38;;
62014;SDS011;47970;52.396;9.586;2022-09-13T06:46:16;12.90;;;4.60;;
62014;SDS011;47970;52.396;9.586;2022-09-13T06:48:42;8.32;;;3.78;;
62014;SDS011;47970;52.396;9.586;2022-09-13T06:51:09;6.70;;;4.05;;
62014;SDS011;47970;52.396;9.586;2022-09-13T06:53:35;6.20;;;3.40;;
62014;SDS011;47970;52.396;9.586;2022-09-13T06:58:38;6.95;;;3.63;;
62014;SDS011;47970;52.396;9.586;2022-09-13T07:01:08;6.22;;;3.40;;
62014;SDS011;47970;52.396;9.586;2022-09-13T07:03:36;5.78;;;3.53;;
62014;SDS011;47970;52.396;9.586;2022-09-13T07:06:35;7.10;;;3.45;;
62014;SDS011;47970;52.396;9.586;2022-09-13T07:08:53;6.22;;;3.20;;
62014;SDS011;47970;52.396;9.586;2022-09-13T07:11:20;9.45;;;3.28;;
62014;SDS011;47970;52.396;9.586;2022-09-13T07:13:49;10.70;;;3.33;;
62014;SDS011;47970;52.396;9.586;2022-09-13T07:16:14;6.75;;;3.05;;
62014;SDS011;47970;52.396;9.586;2022-09-13T07:18:39;5.27;;;3.40;;
62014;SDS011;47970;52.396;9.586;2022-09-13T07:21:07;4.95;;;3.13;;
62014;SDS011;47970;52.396;9.586;2022-09-13T07:23:33;6.30;;;3.45;;
62014;SDS011;47970;52.396;9.586;2022-09-13T07:25:58;8.43;;;3.15;;
62014;SDS011;47970;52.396;9.586;2022-09-13T07:28:28;5.47;;;3.25;;
62014;SDS011;47970;52.396;9.586;2022-09-13T07:30:55;7.00;;;2.83;;
62014;SDS011;47970;52.396;9.586;2022-09-13T07:33:22;7.00;;;3.30;;
62014;SDS011;47970;52.396;9.586;2022-09-13T07:35:53;5.90;;;3.07;;
62014;SDS011;47970;52.396;9.586;2022-09-13T07:38:18;5.72;;;3.30;;
62014;SDS011;47970;52.396;9.586;2022-09-13T07:40:51;5.67;;;3.10;;
62014;SDS011;47970;52.396;9.586;2022-09-13T07:43:17;7.00;;;3.05;;
62014;SDS011;47970;52.396;9.586;2022-09-13T07:45:42;7.23;;;3.50;;
62014;SDS011;47970;52.396;9.586;2022-09-13T07:48:07;8.10;;;3.10;;
62014;SDS011;47970;52.396;9.586;2022-09-13T07:50:32;5.73;;;2.97;;
62014;SDS011;47970;52.396;9.586;2022-09-13T07:52:58;9.80;;;3.50;;
62014;SDS011;47970;52.396;9.586;2022-09-13T07:55:23;6.07;;;3.33;;
62014;SDS011;47970;52.396;9.586;2022-09-13T07:57:48;6.83;;;3.63;;
62014;SDS011;47970;52.396;9.586;2022-09-13T08:00:13;7.80;;;3.83;;
62014;SDS011;47970;52.396;9.586;2022-09-13T08:02:38;6.23;;;3.20;;
62014;SDS011;47970;52.396;9.586;2022-09-13T08:05:04;9.70;;;3.60;;
62014;SDS011;47970;52.396;9.586;2022-09-13T08:07:29;10.00;;;3.92;;
62014;SDS011;47970;52.396;9.586;2022-09-13T08:09:57;7.30;;;4.13;;
62014;SDS011;47970;52.396;9.586;2022-09-13T08:12:22;7.80;;;4.27;;
62014;SDS011;47970;52.396;9.586;2022-09-13T08:14:47;9.30;;;4.27;;
62014;SDS011;47970;52.396;9.586;2022-09-13T08:17:12;8.23;;;4.37;;
62014;SDS011;47970;52.396;9.586;2022-09-13T08:19:37;8.53;;;4.57;;
62014;SDS011;47970;52.396;9.586;2022-09-13T08:22:03;10.77;;;4.18;;
62014;SDS011;47970;52.396;9.586;2022-09-13T08:24:28;7.37;;;4.20;;
62014;SDS011;47970;52.396;9.586;2022-09-13T08:26:53;8.73;;;4.72;;
62014;SDS011;47970;52.396;9.586;2022-09-13T08:29:19;7.60;;;4.57;;
62014;SDS011;47970;52.396;9.586;2022-09-13T08:31:44;7.47;;;4.30;;
62014;SDS011;47970;52.396;9.586;2022-09-13T08:34:10;10.40;;;4.47;;
62014;SDS011;47970;52.396;9.586;2022-09-13T08:36:36;8.25;;;4.57;;
62014;SDS011;47970;52.396;9.586;2022-09-13T08:39:01;8.75;;;4.30;;
62014;SDS011;47970;52.396;9.586;2022-09-13T08:44:09;11.27;;;4.90;;
62014;SDS011;47970;52.396;9.586;2022-09-13T08:46:42;8.30;;;4.68;;
62014;SDS011;47970;52.396;9.586;2022-09-13T08:49:23;7.95;;;4.30;;
62014;SDS011;47970;52.396;9.586;2022-09-13T08:52:00;12.50;;;4.18;;
62014;SDS011;47970;52.396;9.586;2022-09-13T08:54:27;9.65;;;4.00;;
62014;SDS011;47970;52.396;9.586;2022-09-13T09:03:23;8.88;;;4.70;;
62014;SDS011;47970;52.396;9.586;2022-09-13T09:05:16;8.45;;;4.97;;
62014;SDS011;47970;52.396;9.586;2022-09-13T09:07:43;10.35;;;4.70;;
62014;SDS011;47970;52.396;9.586;2022-09-13T09:10:14;9.05;;;5.05;;
62014;SDS011;47970;52.396;9.586;2022-09-13T09:12:42;11.77;;;5.10;;
62014;SDS011;47970;52.396;9.586;2022-09-13T09:15:21;12.13;;;5.75;;
62014;SDS011;47970;52.396;9.586;2022-09-13T09:20:15;12.02;;;5.88;;
62014;SDS011;47970;52.396;9.586;2022-09-13T09:22:43;9.95;;;5.72;;
62014;SDS011;47970;52.396;9.586;2022-09-13T09:25:10;11.10;;;5.82;;
62014;SDS011;47970;52.396;9.586;2022-09-13T09:27:36;12.30;;;7.45;;
62014;SDS011;47970;52.396;9.586;2022-09-13T09:30:02;9.90;;;6.68;;
62014;SDS011;47970;52.396;9.586;2022-09-13T09:37:30;16.27;;;6.97;;
62014;SDS011;47970;52.396;9.586;2022-09-13T09:39:59;11.88;;;6.88;;
62014;SDS011;47970;52.396;9.586;2022-09-13T09:42:27;15.38;;;6.75;;
62014;SDS011;47970;52.396;9.586;2022-09-13T09:44:57;11.82;;;6.38;;
62014;SDS011;47970;52.396;9.586;2022-09-13T09:47:25;13.52;;;7.68;;
62014;SDS011;47970;52.396;9.586;2022-09-13T09:57:52;10.60;;;6.28;;
62014;SDS011;47970;52.396;9.586;2022-09-13T10:00:19;11.50;;;6.45;;
62014;SDS011;47970;52.396;9.586;2022-09-13T10:02:44;12.25;;;6.40;;
62014;SDS011;47970;52.396;9.586;2022-09-13T10:05:11;11.10;;;6.18;;
62014;SDS011;47970;52.396;9.586;2022-09-13T10:07:37;10.02;;;6.53;;
62014;SDS011;47970;52.396;9.586;2022-09-13T10:10:18;11.48;;;7.03;;
62014;SDS011;47970;52.396;9.586;2022-09-13T10:12:50;15.93;;;6.65;;
62014;SDS011;47970;52.396;9.586;2022-09-13T10:15:16;13.88;;;6.90;;
62014;SDS011;47970;52.396;9.586;2022-09-13T10:17:44;13.15;;;6.75;;
62014;SDS011;47970;52.396;9.586;2022-09-13T10:20:24;11.98;;;6.63;;
62014;SDS011;47970;52.396;9.586;2022-09-13T10:23:10;13.48;;;7.20;;
62014;SDS011;47970;52.396;9.586;2022-09-13T10:25:35;12.32;;;6.32;;
62014;SDS011;47970;52.396;9.586;2022-09-13T10:28:01;14.77;;;6.85;;
62014;SDS011;47970;52.396;9.586;2022-09-13T10:30:33;11.93;;;6.13;;
62014;SDS011;47970;52.396;9.586;2022-09-13T10:33:00;10.57;;;6.45;;
62014;SDS011;47970;52.396;9.586;2022-09-13T10:35:25;10.93;;;6.68;;
62014;SDS011;47970;52.396;9.586;2022-09-13T10:37:51;14.07;;;7.68;;
62014;SDS011;47970;52.396;9.586;2022-09-13T10:40:27;11.43;;;6.13;;
62014;SDS011;47970;52.396;9.586;2022-09-13T10:42:53;10.40;;;6.88;;
62014;SDS011;47970;52.396;9.586;2022-09-13T10:45:21;14.80;;;7.65;;
62014;SDS011;47970;52.396;9.586;2022-09-13T10:47:47;10.80;;;7.10;;
62014;SDS011;47970;52.396;9.586;2022-09-13T10:52:46;14.57;;;7.03;;
62014;SDS011;47970;52.396;9.586;2022-09-13T10:57:43;12.90;;;7.70;;
62014;SDS011;47970;52.396;9.586;2022-09-13T11:00:10;12.98;;;7.28;;
62014;SDS011;47970;52.396;9.586;2022-09-13T11:02:48;16.92;;;8.25;;
62014;SDS011;47970;52.396;9.586;2022-09-13T11:05:23;12.60;;;8.27;;
62014;SDS011;47970;52.396;9.586;2022-09-13T11:07:55;14.10;;;7.15;;
62014;SDS011;47970;52.396;9.586;2022-09-13T11:12:59;12.95;;;7.78;;
62014;SDS011;47970;52.396;9.586;2022-09-13T11:46:09;16.67;;;8.83;;
62014;SDS011;47970;52.396;9.586;2022-09-13T11:53:54;19.25;;;9.25;;
62014;SDS011;47970;52.396;9.586;2022-09-13T11:59:00;12.15;;;7.57;;
62014;SDS011;47970;52.396;9.586;2022-09-13T12:01:35;15.07;;;7.85;;
62014;SDS011;47970;52.396;9.586;2022-09-13T12:06:38;15.23;;;7.95;;
62014;SDS011;47970;52.396;9.586;2022-09-13T12:11:40;14.20;;;7.53;;
62014;SDS011;47970;52.396;9.586;2022-09-13T12:14:17;12.02;;;6.47;;
62014;SDS011;47970;52.396;9.586;2022-09-13T12:16:47;8.18;;;4.75;;
62014;SDS011;47970;52.396;9.586;2022-09-13T12:19:21;6.85;;;3.90;;
62014;SDS011;47970;52.396;9.586;2022-09-13T12:21:48;6.35;;;3.30;;
62014;SDS011;47970;52.396;9.586;2022-09-13T12:24:23;4.80;;;2.60;;
62014;SDS011;47970;52.396;9.586;2022-09-13T12:26:59;5.45;;;2.80;;
62014;SDS011;47970;52.396;9.586;2022-09-13T12:31:52;5.90;;;3.60;;
62014;SDS011;47970;52.396;9.586;2022-09-13T12:34:25;5.97;;;3.35;;
62014;SDS011;47970;52.396;9.586;2022-09-13T13:00:18;2.80;;;1.70;;
62014;SDS011;47970;52.396;9.586;2022-09-13T13:05:20;3.22;;;1.30;;
62014;SDS011;47970;52.396;9.586;2022-09-13T13:08:16;1.45;;;1.00;;
62014;SDS011;47970;52.396;9.586;2022-09-13T13:10:36;1.67;;;1.10;;
62014;SDS011;47970;52.396;9.586;2022-09-13T13:13:27;2.78;;;1.02;;
62014;SDS011;47970;52.396;9.586;2022-09-13T13:18:23;1.97;;;0.90;;
62014;SDS011;47970;52.396;9.586;2022-09-13T13:23:21;2.10;;;1.08;;
62014;SDS011;47970;52.396;9.586;2022-09-13T13:31:31;2.08;;;1.10;;
62014;SDS011;47970;52.396;9.586;2022-09-13T13:39:06;1.40;;;0.90;;
62014;SDS011;47970;52.396;9.586;2022-09-13T13:44:53;1.87;;;1.33;;
62014;SDS011;47970;52.396;9.586;2022-09-13T13:46:46;5.88;;;2.28;;
62014;SDS011;47970;52.396;9.586;2022-09-13T13:54:31;4.25;;;1.30;;
62014;SDS011;47970;52.396;9.586;2022-09-13T14:00:19;2.72;;;1.42;;
62014;SDS011;47970;52.396;9.586;2022-09-13T14:05:24;2.92;;;1.13;;
62014;SDS011;47970;52.396;9.586;2022-09-13T14:20:36;4.23;;;0.70;;
62014;SDS011;47970;52.396;9.586;2022-09-13T14:25:58;3.08;;;0.90;;
62014;SDS011;47970;52.396;9.586;2022-09-13T14:28:24;2.47;;;0.82;;
62014;SDS011;47970;52.396;9.586;2022-09-13T14:30:53;2.42;;;0.82;;
62014;SDS011;47970;52.396;9.586;2022-09-13T14:33:23;3.33;;;0.98;;
62014;SDS011;47970;52.396;9.586;2022-09-13T14:35:55;4.63;;;0.90;;
62014;SDS011;47970;52.396;9.586;2022-09-13T14:38:22;3.65;;;0.80;;
62014;SDS011;47970;52.396;9.586;2022-09-13T14:40:49;2.50;;;1.00;;
62014;SDS011;47970;52.396;9.586;2022-09-13T14:43:17;4.57;;;0.70;;
62014;SDS011;47970;52.396;9.586;2022-09-13T14:45:43;0.80;;;0.50;;
62014;SDS011;47970;52.396;9.586;2022-09-13T14:48:14;3.15;;;0.77;;
62014;SDS011;47970;52.396;9.586;2022-09-13T14:50:44;4.18;;;1.25;;
62014;SDS011;47970;52.396;9.586;2022-09-13T14:53:12;3.28;;;0.80;;
62014;SDS011;47970;52.396;9.586;2022-09-13T14:55:40;3.22;;;0.70;;
62014;SDS011;47970;52.396;9.586;2022-09-13T14:58:11;2.20;;;0.77;;
62014;SDS011;47970;52.396;9.586;2022-09-13T15:00:48;4.32;;;0.80;;
62014;SDS011;47970;52.396;9.586;2022-09-13T15:03:15;1.80;;;0.60;;
62014;SDS011;47970;52.396;9.586;2022-09-13T15:05:41;4.57;;;0.57;;
62014;SDS011;47970;52.396;9.586;2022-09-13T15:10:50;6.35;;;0.88;;
62014;SDS011;47970;52.396;9.586;2022-09-13T15:13:15;2.63;;;0.73;;
62014;SDS011;47970;52.396;9.586;2022-09-13T15:15:43;6.63;;;0.90;;
62014;SDS011;47970;52.396;9.586;2022-09-13T15:20:48;5.22;;;0.90;;
62014;SDS011;47970;52.396;9.586;2022-09-13T15:23:14;2.20;;;0.80;;
62014;SDS011;47970;52.396;9.586;2022-09-13T15:25:40;7.10;;;0.98;;
62014;SDS011;47970;52.396;9.586;2022-09-13T15:28:15;2.95;;;0.80;;
62014;SDS011;47970;52.396;9.586;2022-09-13T15:30:44;5.88;;;0.95;;
62014;SDS011;47970;52.396;9.586;2022-09-13T15:35:38;4.55;;;1.23;;
62014;SDS011;47970;52.396;9.586;2022-09-13T15:40:46;2.65;;;0.80;;
62014;SDS011;47970;52.396;9.586;2022-09-13T15:43:11;3.17;;;0.77;;
62014;SDS011;47970;52.396;9.586;2022-09-13T15:45:36;3.72;;;0.90;;
62014;SDS011;47970;52.396;9.586;2022-09-13T15:48:02;5.40;;;0.60;;
62014;SDS011;47970;52.396;9.586;2022-09-13T15:50:29;4.10;;;0.80;;
62014;SDS011;47970;52.396;9.586;2022-09-13T15:52:56;4.50;;;0.90;;
62014;SDS011;47970;52.396;9.586;2022-09-13T15:55:21;3.05;;;0.68;;
62014;SDS011;47970;52.396;9.586;2022-09-13T15:57:47;6.78;;;1.30;;
62014;SDS011;47970;52.396;9.586;2022-09-13T16:00:16;3.83;;;0.88;;
62014;SDS011;47970;52.396;9.586;2022-09-13T16:02:42;2.95;;;0.70;;
62014;SDS011;47970;52.396;9.586;2022-09-13T16:05:07;14.52;;;1.13;;
62014;SDS011;47970;52.396;9.586;2022-09-13T16:07:33;8.45;;;0.85;;
62014;SDS011;47970;52.396;9.586;2022-09-13T16:09:58;4.13;;;0.55;;
62014;SDS011;47970;52.396;9.586;2022-09-13T16:12:23;4.85;;;0.65;;
62014;SDS011;47970;52.396;9.586;2022-09-13T16:14:51;6.82;;;0.65;;
62014;SDS011;47970;52.396;9.586;2022-09-13T16:17:20;2.40;;;0.55;;
62014;SDS011;47970;52.396;9.586;2022-09-13T16:19:46;1.50;;;0.90;;
62014;SDS011;47970;52.396;9.586;2022-09-13T16:22:11;4.22;;;1.20;;
62014;SDS011;47970;52.396;9.586;2022-09-13T16:24:36;4.87;;;0.80;;
62014;SDS011;47970;52.396;9.586;2022-09-13T16:27:02;2.88;;;0.82;;
62014;SDS011;47970;52.396;9.586;2022-09-13T16:29:27;3.58;;;0.98;;
62014;SDS011;47970;52.396;9.586;2022-09-13T16:31:52;2.57;;;0.73;;
62014;SDS011;47970;52.396;9.586;2022-09-13T16:34:18;1.43;;;0.77;;
62014;SDS011;47970;52.396;9.586;2022-09-13T16:36:43;1.97;;;0.73;;
62014;SDS011;47970;52.396;9.586;2022-09-13T16:39:08;5.88;;;0.93;;
62014;SDS011;47970;52.396;9.586;2022-09-13T16:41:33;1.23;;;0.50;;
62014;SDS011;47970;52.396;9.586;2022-09-13T16:43:59;2.20;;;0.57;;
62014;SDS011;47970;52.396;9.586;2022-09-13T16:46:25;1.88;;;0.70;;
62014;SDS011;47970;52.396;9.586;2022-09-13T16:48:52;3.13;;;0.70;;
62014;SDS011;47970;52.396;9.586;2022-09-13T16:51:18;2.67;;;0.60;;
62014;SDS011;47970;52.396;9.586;2022-09-13T16:53:44;1.48;;;0.52;;
62014;SDS011;47970;52.396;9.586;2022-09-13T16:56:13;5.68;;;0.88;;
62014;SDS011;47970;52.396;9.586;2022-09-13T16:58:41;2.53;;;0.73;;
62014;SDS011;47970;52.396;9.586;2022-09-13T17:01:07;2.90;;;0.77;;
62014;SDS011;47970;52.396;9.586;2022-09-13T17:03:33;4.13;;;1.30;;
62014;SDS011;47970;52.396;9.586;2022-09-13T17:06:00;3.88;;;1.00;;
62014;SDS011;47970;52.396;9.586;2022-09-13T17:08:26;1.48;;;0.50;;
62014;SDS011;47970;52.396;9.586;2022-09-13T17:10:51;1.30;;;0.60;;
62014;SDS011;47970;52.396;9.586;2022-09-13T17:13:16;3.17;;;0.77;;
62014;SDS011;47970;52.396;9.586;2022-09-13T17:15:42;4.40;;;0.83;;
62014;SDS011;47970;52.396;9.586;2022-09-13T17:18:07;1.40;;;0.67;;
62014;SDS011;47970;52.396;9.586;2022-09-13T17:20:32;3.03;;;0.80;;
62014;SDS011;47970;52.396;9.586;2022-09-13T17:22:58;4.95;;;1.05;;
62014;SDS011;47970;52.396;9.586;2022-09-13T17:25:24;4.60;;;1.00;;
62014;SDS011;47970;52.396;9.586;2022-09-13T17:27:49;5.17;;;1.20;;
62014;SDS011;47970;52.396;9.586;2022-09-13T17:30:15;4.75;;;1.42;;
62014;SDS011;47970;52.396;9.586;2022-09-13T17:32:40;3.13;;;1.70;;
62014;SDS011;47970;52.396;9.586;2022-09-13T17:35:06;4.07;;;2.15;;
62014;SDS011;47970;52.396;9.586;2022-09-13T17:37:32;9.15;;;1.90;;
62014;SDS011;47970;52.396;9.586;2022-09-13T17:39:57;5.07;;;2.40;;
62014;SDS011;47970;52.396;9.586;2022-09-13T17:42:23;6.90;;;2.60;;
62014;SDS011;47970;52.396;9.586;2022-09-13T17:44:48;10.97;;;2.27;;
62014;SDS011;47970;52.396;9.586;2022-09-13T17:47:13;6.10;;;1.50;;
62014;SDS011;47970;52.396;9.586;2022-09-13T17:49:38;3.40;;;1.87;;
62014;SDS011;47970;52.396;9.586;2022-09-13T17:52:03;2.80;;;0.70;;
62014;SDS011;47970;52.396;9.586;2022-09-13T17:54:29;4.13;;;0.95;;
62014;SDS011;47970;52.396;9.586;2022-09-13T17:56:54;3.43;;;0.90;;
62014;SDS011;47970;52.396;9.586;2022-09-13T17:59:20;6.77;;;1.40;;
62014;SDS011;47970;52.396;9.586;2022-09-13T18:01:49;5.45;;;1.02;;
62014;SDS011;47970;52.396;9.586;2022-09-13T18:04:15;2.83;;;1.05;;
62014;SDS011;47970;52.396;9.586;2022-09-13T18:06:41;5.00;;;1.60;;
62014;SDS011;47970;52.396;9.586;2022-09-13T18:09:07;4.20;;;1.77;;
62014;SDS011;47970;52.396;9.586;2022-09-13T18:11:33;12.82;;;1.65;;
62014;SDS011;47970;52.396;9.586;2022-09-13T18:13:59;6.55;;;1.50;;
62014;SDS011;47970;52.396;9.586;2022-09-13T18:16:25;11.90;;;2.40;;
62014;SDS011;47970;52.396;9.586;2022-09-13T18:18:51;5.60;;;1.70;;
62014;SDS011;47970;52.396;9.586;2022-09-13T18:21:20;10.57;;;2.60;;
62014;SDS011;47970;52.396;9.586;2022-09-13T18:26:11;8.23;;;1.45;;
62014;SDS011;47970;52.396;9.586;2022-09-13T18:28:37;7.82;;;1.55;;
62014;SDS011;47970;52.396;9.586;2022-09-13T18:31:03;7.07;;;1.30;;